Time;durP1;ratioP1;P1;durP2;ratioP2;P2;SDS_P1;SDS_P2;PMS_P1;PMS_P2;Temp;Humidity;BMP_temperature;BMP_pressure;BME280_temperature;BME280_humidity;BME280_pressure;Samples;Min_cycle;Max_cycle;Signal;HPM_P1;HPM_P2
2022/10/18 00:01:06;;;;;;;57.67;28.08;;;;;;;;;;4977147;28;20038;-79
2022/10/18 00:03:32;;;;;;;47.88;25.98;;;;;;;;;;4976376;28;20020;-81
2022/10/18 00:05:58;;;;;;;53.50;27.95;;;;;;;;;;4976701;28;20497;-81
2022/10/18 00:08:24;;;;;;;55.25;26.73;;;;;;;;;;4976394;28;20118;-81
2022/10/18 00:10:50;;;;;;;57.70;27.20;;;;;;;;;;4976865;28;20045;-79
2022/10/18 00:13:16;;;;;;;58.03;27.15;;;;;;;;;;4993348;28;20045;-79
2022/10/18 00:15:52;;;;;;;47.70;26.98;;;;;;;;;;4974940;28;20037;-80
2022/10/18 00:18:18;;;;;;;57.65;27.65;;;;;;;;;;4993748;28;20030;-80
2022/10/18 00:20:44;;;;;;;48.63;25.13;;;;;;;;;;4959320;28;20034;-80
2022/10/18 00:23:10;;;;;;;52.03;27.08;;;;;;;;;;4975072;28;20069;-79
2022/10/18 00:25:35;;;;;;;50.97;26.77;;;;;;;;;;4974850;28;20394;-80
2022/10/18 00:28:01;;;;;;;43.72;24.02;;;;;;;;;;4991877;28;20034;-79
2022/10/18 00:30:26;;;;;;;53.05;25.23;;;;;;;;;;4992272;28;20101;-79
2022/10/18 00:32:52;;;;;;;43.83;24.23;;;;;;;;;;4974479;28;20037;-78
2022/10/18 00:35:17;;;;;;;43.60;24.02;;;;;;;;;;4974753;28;20022;-80
2022/10/18 00:37:43;;;;;;;41.25;23.20;;;;;;;;;;4975008;28;20033;-78
2022/10/18 00:40:09;;;;;;;41.35;22.77;;;;;;;;;;4992153;28;20035;-80
2022/10/18 00:42:36;;;;;;;40.72;22.38;;;;;;;;;;4974493;28;20129;-80
2022/10/18 00:45:17;;;;;;;41.60;21.77;;;;;;;;;;4991497;28;20105;-79
2022/10/18 00:47:45;;;;;;;44.55;22.20;;;;;;;;;;4973085;28;20085;-80
2022/10/18 00:50:12;;;;;;;41.33;23.63;;;;;;;;;;4974107;28;20042;-78
2022/10/18 00:52:42;;;;;;;35.90;22.17;;;;;;;;;;4973712;28;20570;-80
2022/10/18 00:55:09;;;;;;;43.85;24.00;;;;;;;;;;4973827;28;20018;-79
2022/10/18 00:57:35;;;;;;;39.40;22.88;;;;;;;;;;4973729;28;20057;-80
2022/10/18 01:00:06;;;;;;;37.38;22.70;;;;;;;;;;4991160;28;20061;-79
2022/10/18 01:02:31;;;;;;;38.85;22.63;;;;;;;;;;4973693;28;20128;-79
2022/10/18 01:04:57;;;;;;;39.33;21.77;;;;;;;;;;4991047;28;20475;-80
2022/10/18 01:07:59;;;;;;;37.20;21.08;;;;;;;;;;4973565;28;20065;-79
2022/10/18 01:10:47;;;;;;;34.25;21.23;;;;;;;;;;4991858;28;20037;-79
2022/10/18 01:13:19;;;;;;;34.67;19.73;;;;;;;;;;4973381;28;20034;-80
2022/10/18 01:16:09;;;;;;;38.30;21.00;;;;;;;;;;4972900;28;20030;-80
2022/10/18 01:18:52;;;;;;;35.92;21.23;;;;;;;;;;4973696;28;20050;-79
2022/10/18 01:21:36;;;;;;;37.58;20.63;;;;;;;;;;4990960;28;20101;-78
2022/10/18 01:24:39;;;;;;;36.67;22.45;;;;;;;;;;4973092;28;20388;-80
2022/10/18 01:27:27;;;;;;;37.28;22.05;;;;;;;;;;4954433;28;20144;-79
2022/10/18 01:30:31;;;;;;;41.25;22.95;;;;;;;;;;4954506;28;20045;-80
2022/10/18 01:33:08;;;;;;;37.00;19.85;;;;;;;;;;4956346;28;20035;-79
2022/10/18 01:35:39;;;;;;;33.67;19.67;;;;;;;;;;4953607;28;20034;-78
2022/10/18 01:38:11;;;;;;;41.43;21.87;;;;;;;;;;4954085;28;20054;-78
2022/10/18 01:40:39;;;;;;;35.55;20.90;;;;;;;;;;4954021;28;20063;-80
2022/10/18 01:43:08;;;;;;;34.92;20.25;;;;;;;;;;4973598;28;20035;-80
2022/10/18 01:45:33;;;;;;;33.30;20.15;;;;;;;;;;4964613;28;20026;-79
2022/10/18 01:48:00;;;;;;;36.58;20.55;;;;;;;;;;4963590;28;20671;-80
2022/10/18 01:50:34;;;;;;;33.28;19.52;;;;;;;;;;4956867;28;20022;-79
2022/10/18 01:53:00;;;;;;;34.97;19.63;;;;;;;;;;4972288;28;20073;-78
2022/10/18 01:55:35;;;;;;;34.53;19.65;;;;;;;;;;4954716;28;20077;-79
2022/10/18 01:58:13;;;;;;;36.58;20.67;;;;;;;;;;4954995;28;20033;-79
2022/10/18 02:00:43;;;;;;;37.80;19.60;;;;;;;;;;4955212;28;20033;-81
2022/10/18 02:03:23;;;;;;;35.70;19.30;;;;;;;;;;4954259;28;20031;-79
2022/10/18 02:06:16;;;;;;;34.13;19.80;;;;;;;;;;4955259;28;20035;-78
2022/10/18 02:08:58;;;;;;;35.50;19.45;;;;;;;;;;4953468;28;20023;-79
2022/10/18 02:11:25;;;;;;;38.70;20.88;;;;;;;;;;4971077;28;20031;-79
2022/10/18 02:14:05;;;;;;;30.30;18.55;;;;;;;;;;4955221;28;20027;-79
2022/10/18 02:16:42;;;;;;;35.10;18.92;;;;;;;;;;4971371;28;20094;-80
2022/10/18 02:19:17;;;;;;;36.40;19.95;;;;;;;;;;4971809;28;20124;-79
2022/10/18 02:21:44;;;;;;;36.88;19.17;;;;;;;;;;4955610;28;20133;-79
2022/10/18 02:24:12;;;;;;;35.20;19.33;;;;;;;;;;4977952;28;20145;-79
2022/10/18 02:26:39;;;;;;;39.63;19.83;;;;;;;;;;4975635;28;20100;-81
2022/10/18 02:29:04;;;;;;;39.42;18.85;;;;;;;;;;4998135;28;20026;-79
2022/10/18 02:31:40;;;;;;;38.17;19.40;;;;;;;;;;4984189;28;20030;-80
2022/10/18 02:34:18;;;;;;;36.92;17.60;;;;;;;;;;4983592;28;20034;-79
2022/10/18 02:36:53;;;;;;;32.88;17.60;;;;;;;;;;4978531;28;20023;-79
2022/10/18 02:39:24;;;;;;;34.28;17.83;;;;;;;;;;4994110;28;20474;-80
2022/10/18 02:41:49;;;;;;;35.65;19.25;;;;;;;;;;4976685;28;20134;-79
2022/10/18 02:44:15;;;;;;;34.92;18.52;;;;;;;;;;4976018;28;20066;-79
2022/10/18 02:46:41;;;;;;;40.10;19.23;;;;;;;;;;4976255;28;20084;-80
2022/10/18 02:49:07;;;;;;;33.72;18.30;;;;;;;;;;4975794;28;20022;-77
2022/10/18 02:51:32;;;;;;;32.35;18.13;;;;;;;;;;4976285;28;20038;-78
2022/10/18 02:53:58;;;;;;;38.60;18.67;;;;;;;;;;4976469;28;20419;-78
2022/10/18 02:56:23;;;;;;;35.67;18.73;;;;;;;;;;4975862;28;20058;-77
2022/10/18 02:58:49;;;;;;;35.50;17.65;;;;;;;;;;4993272;28;20110;-78
2022/10/18 03:01:14;;;;;;;41.53;20.30;;;;;;;;;;4976450;28;20030;-77
2022/10/18 03:03:40;;;;;;;40.97;19.55;;;;;;;;;;4994298;28;20022;-78
2022/10/18 03:06:06;;;;;;;39.95;20.00;;;;;;;;;;4994807;28;20030;-79
2022/10/18 03:08:31;;;;;;;44.58;18.60;;;;;;;;;;4962586;28;20030;-79
2022/10/18 03:10:57;;;;;;;41.15;19.52;;;;;;;;;;4995228;28;20474;-79
2022/10/18 03:13:22;;;;;;;40.95;17.83;;;;;;;;;;4976063;28;20026;-76
2022/10/18 03:15:48;;;;;;;38.67;19.88;;;;;;;;;;4975530;28;20123;-78
2022/10/18 03:18:14;;;;;;;36.25;18.77;;;;;;;;;;4975385;28;20032;-78
2022/10/18 03:20:40;;;;;;;32.78;17.80;;;;;;;;;;4993305;28;20057;-76
2022/10/18 03:23:06;;;;;;;37.72;18.83;;;;;;;;;;5002839;28;20046;-76
2022/10/18 03:25:32;;;;;;;34.00;17.27;;;;;;;;;;4984847;28;20046;-76
2022/10/18 03:27:58;;;;;;;32.10;16.95;;;;;;;;;;4992979;28;20042;-77
2022/10/18 03:30:23;;;;;;;42.42;17.60;;;;;;;;;;4975224;28;20044;-78
2022/10/18 03:32:49;;;;;;;29.02;17.17;;;;;;;;;;4993068;28;20383;-79
2022/10/18 03:35:14;;;;;;;30.38;16.75;;;;;;;;;;4975417;28;20085;-79
2022/10/18 03:37:40;;;;;;;29.00;16.48;;;;;;;;;;4989624;28;20064;-79
2022/10/18 03:40:06;;;;;;;32.25;17.20;;;;;;;;;;4994820;28;20112;-80
2022/10/18 03:42:32;;;;;;;31.98;16.55;;;;;;;;;;5012552;28;20068;-76
2022/10/18 03:44:57;;;;;;;30.10;17.83;;;;;;;;;;5012415;28;20065;-78
2022/10/18 03:47:23;;;;;;;28.95;16.15;;;;;;;;;;4994641;28;20033;-76
2022/10/18 03:49:48;;;;;;;30.65;16.13;;;;;;;;;;5011849;28;20037;-78
2022/10/18 03:52:14;;;;;;;34.85;17.33;;;;;;;;;;4994182;28;20045;-78
2022/10/18 03:54:41;;;;;;;28.85;16.48;;;;;;;;;;4994262;28;20141;-78
2022/10/18 03:57:07;;;;;;;33.35;16.65;;;;;;;;;;5011089;28;20064;-78
2022/10/18 03:59:32;;;;;;;30.08;16.85;;;;;;;;;;4994317;28;20057;-77
2022/10/18 04:01:58;;;;;;;28.85;17.00;;;;;;;;;;5012241;28;20450;-77
2022/10/18 04:04:24;;;;;;;27.15;15.73;;;;;;;;;;4994091;28;20117;-77
2022/10/18 04:06:50;;;;;;;34.38;16.80;;;;;;;;;;4993695;28;20038;-77
2022/10/18 04:09:15;;;;;;;31.50;17.17;;;;;;;;;;4993755;28;20060;-77
2022/10/18 04:11:41;;;;;;;30.38;16.40;;;;;;;;;;4994128;28;20102;-78
2022/10/18 04:14:06;;;;;;;34.22;17.92;;;;;;;;;;5011681;28;20030;-78
2022/10/18 04:16:32;;;;;;;35.00;16.98;;;;;;;;;;4993462;28;20029;-77
2022/10/18 04:18:57;;;;;;;32.08;16.75;;;;;;;;;;5011587;28;20032;-78
2022/10/18 04:21:23;;;;;;;39.60;18.70;;;;;;;;;;4993672;28;20472;-78
2022/10/18 04:23:49;;;;;;;36.72;18.92;;;;;;;;;;5011883;28;20081;-78
2022/10/18 04:26:16;;;;;;;34.10;18.27;;;;;;;;;;4995832;28;20027;-77
2022/10/18 04:28:42;;;;;;;37.95;17.58;;;;;;;;;;4994048;28;20524;-77
2022/10/18 04:31:08;;;;;;;33.35;17.45;;;;;;;;;;4993617;28;20112;-77
2022/10/18 04:33:34;;;;;;;33.17;17.92;;;;;;;;;;4993970;28;20025;-78
2022/10/18 04:36:00;;;;;;;33.72;16.98;;;;;;;;;;4977594;28;20053;-78
2022/10/18 04:38:26;;;;;;;37.45;16.60;;;;;;;;;;4993417;28;20107;-79
2022/10/18 04:40:51;;;;;;;34.85;16.95;;;;;;;;;;5011397;28;20028;-78
2022/10/18 04:43:17;;;;;;;39.58;18.45;;;;;;;;;;4993316;28;20044;-77
2022/10/18 04:45:46;;;;;;;35.58;18.98;;;;;;;;;;4993375;28;20077;-78
2022/10/18 04:48:16;;;;;;;32.28;18.20;;;;;;;;;;4993343;28;20037;-77
2022/10/18 04:50:42;;;;;;;32.00;17.30;;;;;;;;;;4993659;28;20393;-78
2022/10/18 04:53:07;;;;;;;31.40;17.95;;;;;;;;;;4993458;28;20034;-78
2022/10/18 04:55:33;;;;;;;36.13;18.83;;;;;;;;;;4993306;28;20026;-78
2022/10/18 04:57:58;;;;;;;26.65;15.80;;;;;;;;;;5011297;28;20135;-79
2022/10/18 05:00:24;;;;;;;33.15;18.23;;;;;;;;;;4993594;28;20061;-78
2022/10/18 05:02:58;;;;;;;33.08;15.98;;;;;;;;;;5011371;28;20034;-80
2022/10/18 05:05:23;;;;;;;26.42;16.15;;;;;;;;;;5010587;28;20041;-78
2022/10/18 05:07:49;;;;;;;33.65;17.48;;;;;;;;;;4993669;28;20096;-77
2022/10/18 05:10:14;;;;;;;36.60;16.33;;;;;;;;;;4993312;28;20497;-78
2022/10/18 05:12:44;;;;;;;36.67;19.75;;;;;;;;;;5010686;28;20048;-80
2022/10/18 05:15:09;;;;;;;30.80;17.38;;;;;;;;;;5010521;28;20026;-79
2022/10/18 05:17:37;;;;;;;26.70;15.55;;;;;;;;;;4975998;28;20030;-77
2022/10/18 05:20:03;;;;;;;34.53;17.50;;;;;;;;;;4988886;28;20227;-81
2022/10/18 05:22:28;;;;;;;31.73;19.20;;;;;;;;;;4956693;28;20422;-78
2022/10/18 05:24:54;;;;;;;32.75;17.70;;;;;;;;;;4986612;28;20046;-80
2022/10/18 05:27:20;;;;;;;34.45;17.95;;;;;;;;;;4964639;28;20070;-83
2022/10/18 05:29:45;;;;;;;31.75;16.90;;;;;;;;;;4960316;28;20063;-78
2022/10/18 05:32:11;;;;;;;31.25;16.95;;;;;;;;;;4979832;28;20104;-77
2022/10/18 05:34:37;;;;;;;33.40;17.48;;;;;;;;;;4982594;28;20057;-80
2022/10/18 05:37:03;;;;;;;30.98;16.80;;;;;;;;;;4968350;28;20057;-80
2022/10/18 05:39:29;;;;;;;32.63;16.65;;;;;;;;;;4959357;28;20487;-79
2022/10/18 05:41:54;;;;;;;29.00;16.40;;;;;;;;;;4986924;28;20113;-79
2022/10/18 05:44:20;;;;;;;26.60;15.15;;;;;;;;;;4971120;28;20045;-78
2022/10/18 05:46:45;;;;;;;33.90;16.45;;;;;;;;;;4970463;28;20034;-80
2022/10/18 05:49:13;;;;;;;51.65;17.60;;;;;;;;;;4994057;28;20034;-79
2022/10/18 05:51:39;;;;;;;36.13;17.30;;;;;;;;;;4969022;28;20034;-76
2022/10/18 05:54:04;;;;;;;36.97;18.05;;;;;;;;;;4954193;28;20084;-81
2022/10/18 05:56:30;;;;;;;29.10;16.30;;;;;;;;;;4985692;28;20130;-76
2022/10/18 05:58:55;;;;;;;33.20;17.98;;;;;;;;;;4967026;28;20053;-80
2022/10/18 06:01:21;;;;;;;26.88;14.18;;;;;;;;;;4961801;28;20038;-76
2022/10/18 06:03:47;;;;;;;29.63;16.08;;;;;;;;;;4968307;28;20057;-76
2022/10/18 06:06:14;;;;;;;27.40;15.23;;;;;;;;;;4958489;28;20136;-78
2022/10/18 06:08:41;;;;;;;28.45;15.38;;;;;;;;;;4939721;28;20184;-78
2022/10/18 06:11:11;;;;;;;28.42;15.70;;;;;;;;;;4966317;28;20038;-77
2022/10/18 06:13:41;;;;;;;25.25;14.45;;;;;;;;;;4965520;28;20374;-77
2022/10/18 06:16:07;;;;;;;31.67;15.57;;;;;;;;;;4986832;28;20106;-78
2022/10/18 06:18:34;;;;;;;25.65;15.40;;;;;;;;;;4956377;28;20035;-80
2022/10/18 06:20:59;;;;;;;25.52;14.88;;;;;;;;;;4957298;28;20073;-75
2022/10/18 06:23:28;;;;;;;33.78;16.85;;;;;;;;;;4985647;28;20054;-77
2022/10/18 06:25:59;;;;;;;39.13;18.80;;;;;;;;;;4967346;28;20057;-77
2022/10/18 06:28:25;;;;;;;38.28;16.65;;;;;;;;;;4945054;28;20058;-78
2022/10/18 06:30:51;;;;;;;30.05;15.20;;;;;;;;;;4963047;28;20507;-76
2022/10/18 06:33:16;;;;;;;33.15;16.33;;;;;;;;;;4968504;28;20022;-78
2022/10/18 06:35:42;;;;;;;30.85;17.60;;;;;;;;;;4966888;28;20141;-79
2022/10/18 06:38:07;;;;;;;28.08;15.85;;;;;;;;;;4968771;28;20048;-74
2022/10/18 06:40:36;;;;;;;28.45;16.65;;;;;;;;;;4988960;28;20038;-82
2022/10/18 06:43:07;;;;;;;32.22;15.82;;;;;;;;;;4968039;28;20034;-78
2022/10/18 06:45:32;;;;;;;31.23;16.13;;;;;;;;;;4986217;28;20042;-76
2022/10/18 06:47:58;;;;;;;30.42;16.63;;;;;;;;;;4978929;28;20032;-77
2022/10/18 06:50:24;;;;;;;29.90;16.15;;;;;;;;;;4956958;28;20394;-80
2022/10/18 06:52:53;;;;;;;30.42;16.10;;;;;;;;;;4942549;28;20124;-76
2022/10/18 06:55:18;;;;;;;31.05;15.95;;;;;;;;;;4966529;28;20105;-77
2022/10/18 06:57:44;;;;;;;27.85;16.58;;;;;;;;;;4980999;28;20491;-75
2022/10/18 07:00:11;;;;;;;30.40;15.48;;;;;;;;;;4976392;28;20034;-77
2022/10/18 07:02:40;;;;;;;28.83;15.27;;;;;;;;;;4982018;28;20159;-80
2022/10/18 07:05:08;;;;;;;36.22;16.40;;;;;;;;;;4967430;28;20034;-78
2022/10/18 07:07:33;;;;;;;36.60;15.43;;;;;;;;;;4965059;28;20506;-76
2022/10/18 07:09:59;;;;;;;30.92;15.98;;;;;;;;;;4978424;28;20046;-81
2022/10/18 07:12:24;;;;;;;38.45;16.88;;;;;;;;;;4965676;28;20038;-79
2022/10/18 07:14:50;;;;;;;35.05;16.17;;;;;;;;;;4961191;28;20038;-77
2022/10/18 07:17:17;;;;;;;41.13;17.63;;;;;;;;;;4966113;28;20041;-79
2022/10/18 07:19:42;;;;;;;36.28;17.63;;;;;;;;;;4968966;28;20026;-76
2022/10/18 07:22:09;;;;;;;39.55;17.80;;;;;;;;;;4964383;28;20034;-78
2022/10/18 07:24:35;;;;;;;41.83;17.02;;;;;;;;;;4960423;28;20487;-84
2022/10/18 07:27:00;;;;;;;46.65;18.80;;;;;;;;;;4969032;28;20208;-79
2022/10/18 07:29:26;;;;;;;49.10;20.10;;;;;;;;;;4969263;28;20030;-81
2022/10/18 07:31:53;;;;;;;49.63;20.55;;;;;;;;;;4972428;28;20391;-82
2022/10/18 07:34:18;;;;;;;58.65;21.98;;;;;;;;;;4975522;28;20235;-81
2022/10/18 07:36:44;;;;;;;54.30;21.98;;;;;;;;;;4993945;28;20417;-79
2022/10/18 07:39:10;;;;;;;51.55;22.30;;;;;;;;;;4955298;28;20038;-83
2022/10/18 07:41:36;;;;;;;55.55;23.00;;;;;;;;;;4986441;28;20169;-77
2022/10/18 07:44:03;;;;;;;47.15;21.60;;;;;;;;;;4972707;28;20045;-79
2022/10/18 07:46:28;;;;;;;51.22;22.92;;;;;;;;;;4993788;28;20026;-77
2022/10/18 07:48:54;;;;;;;45.13;21.70;;;;;;;;;;4969304;28;20034;-81
2022/10/18 07:51:20;;;;;;;57.70;24.20;;;;;;;;;;4974467;28;20031;-83
2022/10/18 07:53:47;;;;;;;52.40;22.77;;;;;;;;;;4991155;28;20030;-81
2022/10/18 07:56:16;;;;;;;55.70;24.17;;;;;;;;;;4973562;28;20037;-83
2022/10/18 07:58:53;;;;;;;56.65;23.48;;;;;;;;;;4973442;28;20121;-80
2022/10/18 08:01:21;;;;;;;50.25;22.52;;;;;;;;;;4970153;28;20045;-82
2022/10/18 08:03:46;;;;;;;46.28;20.52;;;;;;;;;;4964881;28;20140;-84
2022/10/18 08:06:17;;;;;;;54.95;22.00;;;;;;;;;;4971385;28;20106;-80
2022/10/18 08:08:49;;;;;;;50.25;22.45;;;;;;;;;;4977605;28;20041;-80
2022/10/18 08:11:18;;;;;;;46.03;20.73;;;;;;;;;;4978998;28;20121;-81
2022/10/18 08:13:45;;;;;;;45.95;22.35;;;;;;;;;;4972893;28;20030;-81
2022/10/18 08:16:14;;;;;;;50.92;22.35;;;;;;;;;;4972295;28;20137;-81
2022/10/18 08:18:41;;;;;;;51.05;21.77;;;;;;;;;;4958328;28;20113;-78
2022/10/18 08:21:09;;;;;;;44.85;22.73;;;;;;;;;;4961590;28;20081;-77
2022/10/18 08:23:36;;;;;;;44.17;22.05;;;;;;;;;;4975449;28;20046;-80
2022/10/18 08:26:08;;;;;;;47.22;22.60;;;;;;;;;;4990803;28;20042;-78
2022/10/18 08:28:37;;;;;;;45.08;22.00;;;;;;;;;;4960871;28;20403;-85
2022/10/18 08:31:10;;;;;;;38.58;21.33;;;;;;;;;;4997286;28;20033;-80
2022/10/18 08:33:37;;;;;;;35.70;19.10;;;;;;;;;;4946137;28;20049;-79
2022/10/18 08:36:06;;;;;;;44.13;20.60;;;;;;;;;;4975035;28;20022;-80
2022/10/18 08:38:36;;;;;;;42.88;22.38;;;;;;;;;;4958117;28;20050;-81
2022/10/18 08:41:23;;;;;;;49.38;22.90;;;;;;;;;;4972232;28;20035;-81
2022/10/18 08:47:52;;;;;;;45.53;22.85;;;;;;;;;;4978769;28;20092;-79
2022/10/18 08:50:22;;;;;;;54.05;24.02;;;;;;;;;;4932732;28;20057;-80
2022/10/18 08:52:59;;;;;;;48.47;24.65;;;;;;;;;;4991317;28;20464;-78
2022/10/18 08:55:35;;;;;;;44.70;23.17;;;;;;;;;;4968856;28;20031;-75
2022/10/18 08:58:22;;;;;;;44.78;23.60;;;;;;;;;;4977960;28;20793;-75
2022/10/18 09:01:01;;;;;;;42.88;21.77;;;;;;;;;;4976572;28;20018;-76
2022/10/18 09:03:57;;;;;;;51.00;23.63;;;;;;;;;;4979186;28;20026;-76
2022/10/18 09:06:42;;;;;;;42.55;21.95;;;;;;;;;;4978112;28;20194;-76
2022/10/18 09:09:23;;;;;;;49.20;22.15;;;;;;;;;;4973064;28;20034;-76
2022/10/18 09:12:26;;;;;;;56.67;24.65;;;;;;;;;;4992415;28;20062;-75
2022/10/18 09:15:09;;;;;;;48.67;23.40;;;;;;;;;;4988491;28;20128;-74
2022/10/18 09:17:56;;;;;;;59.85;25.35;;;;;;;;;;4984182;28;20029;-77
2022/10/18 09:20:31;;;;;;;43.38;22.02;;;;;;;;;;4966082;28;20036;-77
2022/10/18 09:23:15;;;;;;;42.90;20.80;;;;;;;;;;4971190;28;20054;-75
2022/10/18 09:25:46;;;;;;;47.00;22.70;;;;;;;;;;4985884;28;20030;-74
2022/10/18 09:28:42;;;;;;;47.33;24.10;;;;;;;;;;4988580;28;20030;-76
2022/10/18 09:31:27;;;;;;;44.33;22.27;;;;;;;;;;4970493;28;20123;-79
2022/10/18 09:34:00;;;;;;;43.20;22.13;;;;;;;;;;4960852;28;20098;-76
2022/10/18 09:36:34;;;;;;;40.47;22.02;;;;;;;;;;4968966;28;20045;-76
2022/10/18 09:39:15;;;;;;;40.95;21.45;;;;;;;;;;4967101;28;20037;-77
2022/10/18 09:42:02;;;;;;;55.78;24.88;;;;;;;;;;4962710;28;20038;-78
2022/10/18 09:44:39;;;;;;;41.38;21.63;;;;;;;;;;4961238;28;20074;-77
2022/10/18 09:47:17;;;;;;;40.58;21.15;;;;;;;;;;4998515;28;20062;-78
2022/10/18 09:50:14;;;;;;;37.80;21.42;;;;;;;;;;4972138;28;20025;-76
2022/10/18 09:53:10;;;;;;;42.75;22.10;;;;;;;;;;4996728;28;20544;-78
2022/10/18 09:55:48;;;;;;;52.05;23.40;;;;;;;;;;4992190;28;20074;-79
2022/10/18 09:58:17;;;;;;;43.53;22.80;;;;;;;;;;4973033;28;20040;-76
2022/10/18 10:00:49;;;;;;;39.63;21.77;;;;;;;;;;4964981;28;20034;-74
2022/10/18 10:03:15;;;;;;;35.05;20.17;;;;;;;;;;4974174;28;20041;-74
2022/10/18 10:05:44;;;;;;;43.85;25.40;;;;;;;;;;4953902;28;20403;-74
2022/10/18 10:08:10;;;;;;;30.17;21.48;;;;;;;;;;4987976;28;20057;-81
2022/10/18 10:10:44;;;;;;;33.75;20.85;;;;;;;;;;4980709;28;20026;-75
2022/10/18 10:13:16;;;;;;;35.10;20.05;;;;;;;;;;4969894;28;20034;-77
2022/10/18 10:15:58;;;;;;;30.25;19.52;;;;;;;;;;4964023;28;20498;-75
2022/10/18 10:18:29;;;;;;;31.05;20.13;;;;;;;;;;4987290;28;20056;-78
2022/10/18 10:21:12;;;;;;;28.00;19.08;;;;;;;;;;4968531;28;20109;-76
2022/10/18 10:23:50;;;;;;;31.08;19.70;;;;;;;;;;4956992;28;20055;-74
2022/10/18 10:26:28;;;;;;;40.38;23.65;;;;;;;;;;4959073;28;20042;-75
2022/10/18 10:28:55;;;;;;;41.97;21.63;;;;;;;;;;4979367;28;20038;-78
2022/10/18 10:31:28;;;;;;;34.00;19.55;;;;;;;;;;4967613;28;20045;-79
2022/10/18 10:34:13;;;;;;;44.47;22.88;;;;;;;;;;4962419;28;20027;-79
2022/10/18 10:36:53;;;;;;;29.15;18.42;;;;;;;;;;4962232;28;20459;-75
2022/10/18 10:39:22;;;;;;;34.60;21.20;;;;;;;;;;4983796;28;20041;-80
2022/10/18 10:41:50;;;;;;;32.22;21.67;;;;;;;;;;4967511;28;20085;-78
2022/10/18 10:44:19;;;;;;;37.65;20.90;;;;;;;;;;4974923;28;20046;-77
2022/10/18 10:46:47;;;;;;;34.42;21.58;;;;;;;;;;4974258;28;20034;-77
2022/10/18 10:49:26;;;;;;;45.10;22.38;;;;;;;;;;4979415;28;20083;-78
2022/10/18 10:52:02;;;;;;;41.50;21.58;;;;;;;;;;4964468;28;20363;-77
2022/10/18 10:54:34;;;;;;;27.55;19.13;;;;;;;;;;4959147;29;20057;-76
2022/10/18 10:57:11;;;;;;;29.45;19.58;;;;;;;;;;4970489;28;20050;-80
2022/10/18 10:59:44;;;;;;;32.97;20.02;;;;;;;;;;4971416;28;20046;-77
2022/10/18 11:02:13;;;;;;;31.25;19.85;;;;;;;;;;4972474;28;20122;-76
2022/10/18 11:04:40;;;;;;;37.63;24.48;;;;;;;;;;4973809;28;20026;-78
2022/10/18 11:07:30;;;;;;;47.80;23.40;;;;;;;;;;4965910;28;20050;-77
2022/10/18 11:10:12;;;;;;;23.97;17.60;;;;;;;;;;4967568;28;20058;-77
2022/10/18 11:12:45;;;;;;;37.95;20.23;;;;;;;;;;4965038;28;20320;-76
2022/10/18 11:15:15;;;;;;;25.88;17.70;;;;;;;;;;4975225;28;20054;-78
2022/10/18 11:18:18;;;;;;;25.13;17.27;;;;;;;;;;4955359;28;20343;-79
2022/10/18 11:20:55;;;;;;;30.00;18.15;;;;;;;;;;4966211;28;20034;-78
2022/10/18 11:23:28;;;;;;;28.92;19.95;;;;;;;;;;4970366;28;20050;-78
2022/10/18 11:26:10;;;;;;;30.50;18.73;;;;;;;;;;4962367;28;20085;-77
2022/10/18 11:28:35;;;;;;;30.55;20.05;;;;;;;;;;4970367;28;20483;-79
2022/10/18 11:31:16;;;;;;;30.67;19.40;;;;;;;;;;4971563;28;20047;-77
2022/10/18 11:33:46;;;;;;;32.20;19.53;;;;;;;;;;4950733;29;20041;-78
2022/10/18 11:36:47;;;;;;;31.85;19.92;;;;;;;;;;4963769;28;20276;-79
2022/10/18 11:40:12;;;;;;;37.10;18.73;;;;;;;;;;4964225;28;20081;-79
2022/10/18 11:43:15;;;;;;;29.60;20.52;;;;;;;;;;4938312;28;20022;-77
2022/10/18 11:46:02;;;;;;;27.77;18.45;;;;;;;;;;4969362;28;20027;-79
2022/10/18 11:48:59;;;;;;;27.48;19.45;;;;;;;;;;4959507;28;20034;-77
2022/10/18 11:52:08;;;;;;;32.05;18.75;;;;;;;;;;4973213;28;20688;-77
2022/10/18 11:54:58;;;;;;;24.92;18.67;;;;;;;;;;4970810;28;20038;-76
2022/10/18 11:57:53;;;;;;;32.42;19.25;;;;;;;;;;4967988;28;20030;-78
2022/10/18 12:00:39;;;;;;;36.03;21.73;;;;;;;;;;4957776;28;20046;-79
2022/10/18 12:03:32;;;;;;;34.05;20.10;;;;;;;;;;4971692;28;20030;-77
2022/10/18 12:06:20;;;;;;;37.30;21.95;;;;;;;;;;4968621;28;20035;-79
2022/10/18 12:08:54;;;;;;;26.38;19.30;;;;;;;;;;4963104;28;20041;-77
2022/10/18 12:11:27;;;;;;;31.50;18.20;;;;;;;;;;4970993;28;20031;-78
2022/10/18 12:13:58;;;;;;;30.60;19.92;;;;;;;;;;4968540;28;20046;-77
2022/10/18 12:16:32;;;;;;;30.80;18.75;;;;;;;;;;4959993;28;20118;-78
2022/10/18 12:19:07;;;;;;;28.92;20.58;;;;;;;;;;4970456;28;20101;-77
2022/10/18 12:21:36;;;;;;;35.60;20.10;;;;;;;;;;4952515;28;20039;-75
2022/10/18 12:24:11;;;;;;;28.90;19.73;;;;;;;;;;4954062;28;20062;-78
2022/10/18 12:26:39;;;;;;;30.50;18.00;;;;;;;;;;4970845;28;20038;-78
2022/10/18 12:29:28;;;;;;;35.10;20.08;;;;;;;;;;4966668;28;20030;-78
2022/10/18 12:32:02;;;;;;;27.90;17.85;;;;;;;;;;4974423;28;20077;-78
2022/10/18 12:35:00;;;;;;;27.65;18.65;;;;;;;;;;4960551;28;20027;-78
2022/10/18 12:38:07;;;;;;;24.58;17.33;;;;;;;;;;4970188;28;20464;-83
2022/10/18 12:40:47;;;;;;;31.58;17.63;;;;;;;;;;4966582;28;20040;-80
2022/10/18 12:43:35;;;;;;;29.23;17.83;;;;;;;;;;4970303;28;20505;-80
2022/10/18 12:46:04;;;;;;;24.90;17.73;;;;;;;;;;4960679;28;20640;-79
2022/10/18 12:48:59;;;;;;;25.55;17.25;;;;;;;;;;4989924;28;20108;-79
2022/10/18 12:51:24;;;;;;;25.63;17.17;;;;;;;;;;4990443;28;20042;-79
2022/10/18 12:53:59;;;;;;;25.20;17.17;;;;;;;;;;4968190;28;20133;-80
2022/10/18 12:56:36;;;;;;;23.40;16.25;;;;;;;;;;4971033;28;20033;-79
2022/10/18 12:59:18;;;;;;;24.23;17.52;;;;;;;;;;4970200;28;20037;-78
2022/10/18 13:01:50;;;;;;;;;;;;;;;;;;4974870;28;20108;-80
2022/10/18 13:04:37;;;;;;;29.85;16.63;;;;;;;;;;4973545;28;20000;-80
2022/10/18 13:07:29;;;;;;;20.17;15.80;;;;;;;;;;4966603;28;20057;-79
2022/10/18 13:10:11;;;;;;;25.60;16.10;;;;;;;;;;4969976;28;20132;-81
2022/10/18 13:12:47;;;;;;;23.83;15.90;;;;;;;;;;4967860;28;20426;-82
2022/10/18 13:15:34;;;;;;;23.88;15.30;;;;;;;;;;4968872;28;20040;-79
2022/10/18 13:18:24;;;;;;;24.95;15.35;;;;;;;;;;4977436;28;20030;-81
2022/10/18 13:21:15;;;;;;;21.23;13.85;;;;;;;;;;4966764;28;20122;-80
2022/10/18 13:23:54;;;;;;;21.80;15.15;;;;;;;;;;4971749;28;20102;-80
2022/10/18 13:26:51;;;;;;;25.40;16.25;;;;;;;;;;4963620;28;20059;-78
2022/10/18 13:29:48;;;;;;;24.15;16.95;;;;;;;;;;4955898;28;20043;-78
2022/10/18 13:32:34;;;;;;;26.75;15.30;;;;;;;;;;4968978;28;20033;-80
2022/10/18 13:35:02;;;;;;;25.33;15.30;;;;;;;;;;4966398;28;20042;-79
2022/10/18 13:37:31;;;;;;;24.60;15.32;;;;;;;;;;4965835;28;20029;-79
2022/10/18 13:40:23;;;;;;;19.88;14.75;;;;;;;;;;4964991;28;20027;-81
2022/10/18 13:42:49;;;;;;;22.02;14.32;;;;;;;;;;4963003;28;20015;-80
2022/10/18 13:45:30;;;;;;;26.95;14.73;;;;;;;;;;4942515;28;20035;-78
2022/10/18 13:48:28;;;;;;;26.55;14.82;;;;;;;;;;4955760;28;20061;-77
2022/10/18 13:51:01;;;;;;;21.85;14.50;;;;;;;;;;4952331;28;20039;-79
2022/10/18 13:53:49;;;;;;;20.52;14.77;;;;;;;;;;4969904;28;20054;-79
2022/10/18 13:56:24;;;;;;;26.27;15.60;;;;;;;;;;4968154;28;20023;-79
2022/10/18 13:59:09;;;;;;;26.33;16.60;;;;;;;;;;4949420;28;20149;-81
2022/10/18 14:02:06;;;;;;;26.83;16.52;;;;;;;;;;4976642;28;20084;-80
2022/10/18 14:05:04;;;;;;;32.97;18.90;;;;;;;;;;4973448;28;20094;-79
2022/10/18 14:07:32;;;;;;;44.80;25.85;;;;;;;;;;4954424;29;20348;-80
2022/10/18 14:10:00;;;;;;;58.70;31.17;;;;;;;;;;4939558;28;20028;-80
2022/10/18 14:12:47;;;;;;;67.05;31.10;;;;;;;;;;4963408;28;20043;-80
2022/10/18 14:15:35;;;;;;;58.38;31.58;;;;;;;;;;4955169;28;20039;-78
2022/10/18 14:18:06;;;;;;;68.05;35.15;;;;;;;;;;4971687;28;20388;-80
2022/10/18 14:20:43;;;;;;;74.05;35.15;;;;;;;;;;4965930;28;20038;-80
2022/10/18 14:23:20;;;;;;;76.88;37.70;;;;;;;;;;4968362;28;20037;-79
2022/10/18 14:26:08;;;;;;;84.07;41.22;;;;;;;;;;4966804;28;20430;-79
2022/10/18 14:28:37;;;;;;;84.32;40.78;;;;;;;;;;4984548;28;20394;-79
2022/10/18 14:31:08;;;;;;;87.60;40.88;;;;;;;;;;4978612;28;20467;-80
2022/10/18 14:33:46;;;;;;;87.82;40.25;;;;;;;;;;4967796;28;20057;-81
2022/10/18 14:36:14;;;;;;;88.97;39.65;;;;;;;;;;4998624;28;20030;-79
2022/10/18 14:39:02;;;;;;;83.47;39.97;;;;;;;;;;4983305;28;20046;-78
2022/10/18 14:41:37;;;;;;;96.70;39.45;;;;;;;;;;4977899;28;20846;-79
2022/10/18 14:44:20;;;;;;;86.18;38.85;;;;;;;;;;4985059;28;20022;-79
2022/10/18 14:46:46;;;;;;;88.45;37.80;;;;;;;;;;4979713;28;20034;-79
2022/10/18 14:49:14;;;;;;;81.15;36.85;;;;;;;;;;4978644;28;20038;-78
2022/10/18 14:51:42;;;;;;;87.28;38.85;;;;;;;;;;4971636;28;20031;-78
2022/10/18 14:54:17;;;;;;;93.50;39.40;;;;;;;;;;4967057;28;20133;-80